Jelgava, Latvia
Current Conditions -  °F | °C
As of 9:20 AM on Monday 22 Dec 2014 (Local Time) from EVRA Reporting Station
Moderate Snow Moderate Snow  
Wind Chill: 24°   Ceiling: 300
Heat Index: 32°   Visibility: 2.8mi
Dew Point: 32°   Wind: 9mph
Humidity: 100%   Direction: 150°SSE
Pressure: 29.35"   Gusts: NA
Location:  56.65°N, 23.71°E
Report Text: EVRA 220620Z 15008KT 4600 SN BKN003 OVC013 00/00 Q0994 R18/490294 NOSIG
Loading
Personal Weather Stations






























Interactive Weather Map New forecast layout! Learn more

10-Day Weather Forecast

Advertisements
Track Severe Weather on mobile